Sierra Fox — WDE9075 — position and weather

sailwx.info

Track history (hours):
 
Tides and Currents Weather Stations Pressure Air Temp Water Temp Dewpoint Dewpoint Depression Visibility Wind Speed Wind Dir Waves Ship Positions

Sierra Fox

Owner: Sierra Fox LLC, Woodside, CA. More information available from US FCC via Universal Licensing System and Coast Guard Vessel Documentation Center.

Last reported at 2017-Oct-19 23:32 UTC. Time now 2017-Nov-18 01:21 UTC.
Position N 34°14' W 119°16'.
Warning: this ship's position is 29 days out of date.

Length 18 m; draft 2 m.

Type: Pleasure craft. MMSI: 367394290.

Date/timePositionNaut miles runAvg speedWind from/ knotsBaromVisibWave heightAir tempDewpointWater temp
2017-Oct-19 23:32N 34°14' W 119°16'0 0.0
2017-Oct-19 23:29N 34°14' W 119°16'0 0.5
2017-Oct-19 23:00N 34°15' W 119°16'611.6
2017-Oct-19 22:31N 34°16' W 119°23'816.4
2017-Oct-19 22:00N 34°18' W 119°32'816.3
2017-Oct-19 21:30N 34°21' W 119°41'714.8
2017-Oct-19 21:00N 34°23' W 119°50'714.1
2017-Oct-19 20:30N 34°24' W 119°58'714.1
2017-Oct-19 19:59N 34°24' W 120°07'713.4
2017-Oct-19 19:29N 34°24' W 120°15'714.2
2017-Oct-19 19:01N 34°25' W 120°24'713.5
2017-Oct-19 18:30N 34°28' W 120°31'714.7
2017-Oct-19 18:00N 34°32' W 120°38'714.4
2017-Oct-19 17:30N 34°39' W 120°42'715.0
2017-Oct-19 17:00N 34°46' W 120°44'714.5
2017-Oct-19 16:31N 34°53' W 120°47'714.4
2017-Oct-19 16:01N 34°59' W 120°50'714.6
2017-Oct-19 15:30N 35°06' W 120°54'715.0
2017-Oct-19 15:01N 35°14' W 120°55'714.0
2017-Oct-19 14:29N 35°21' W 120°53'2 4.3
2017-Oct-19 14:00N 35°22' W 120°51'0 0.0
2017-Oct-19 13:28N 35°22' W 120°51'0 0.0
2017-Oct-19 12:58N 35°22' W 120°51'0 0.0
2017-Oct-19 12:28N 35°22' W 120°51'0 0.0
2017-Oct-19 11:58N 35°22' W 120°51'0 0.0
2017-Oct-19 11:28N 35°22' W 120°51'0 0.0
2017-Oct-19 10:58N 35°22' W 120°51'0 0.0
2017-Oct-19 10:28N 35°22' W 120°51'0 0.0
2017-Oct-19 09:58N 35°22' W 120°51'0 0.0
2017-Oct-19 09:28N 35°22' W 120°51'0 0.0
2017-Oct-19 08:58N 35°22' W 120°51'0 0.0
2017-Oct-19 08:28N 35°22' W 120°51'0 0.0
2017-Oct-19 07:58N 35°22' W 120°51'0 0.0
2017-Oct-19 07:28N 35°22' W 120°51'0 0.0
2017-Oct-19 06:58N 35°22' W 120°51'0 0.0
2017-Oct-19 06:28N 35°22' W 120°51'0 0.0
2017-Oct-19 05:58N 35°22' W 120°51'0 0.0
2017-Oct-19 05:28N 35°22' W 120°51'0 0.0
2017-Oct-19 04:58N 35°22' W 120°51'90 6.0
2017-Oct-18 14:00N 36°37' W 121°53'1 1.3
2017-Oct-18 13:30N 36°36' W 121°54'0 0.0
2017-Oct-18 12:58N 36°36' W 121°54'0 0.0
2017-Oct-18 12:28N 36°36' W 121°54'0 0.0
2017-Oct-18 11:58N 36°36' W 121°54'0 0.0
2017-Oct-18 11:28N 36°36' W 121°54'0 0.0
2017-Oct-18 10:58N 36°36' W 121°54'0 0.0
2017-Oct-18 10:28N 36°36' W 121°54'0 0.0
2017-Oct-18 09:55N 36°36' W 121°54'0 0.0
2017-Oct-18 09:22N 36°36' W 121°54'0 0.0
2017-Oct-18 08:58N 36°36' W 121°54'0 0.0
2017-Oct-18 08:28N 36°36' W 121°54'0 0.0
2017-Oct-18 07:58N 36°36' W 121°54'0 0.0
2017-Oct-18 07:28N 36°36' W 121°54'0 0.0
2017-Oct-18 06:55N 36°36' W 121°54'0 0.0
2017-Oct-18 06:25N 36°36' W 121°54'0 0.0
2017-Oct-18 05:55N 36°36' W 121°54'0 0.0
2017-Oct-18 05:28N 36°36' W 121°54'0 0.0
2017-Oct-18 04:58N 36°36' W 121°54'0 0.0
2017-Oct-18 04:25N 36°36' W 121°54'0 0.0
2017-Oct-18 03:55N 36°36' W 121°54'0 0.0
2017-Oct-18 03:25N 36°36' W 121°54'0 0.0
2017-Oct-18 02:58N 36°36' W 121°54'0 0.0
2017-Oct-18 02:25N 36°36' W 121°54'0 0.0
2017-Oct-18 01:55N 36°36' W 121°54'0 0.0
2017-Oct-18 01:25N 36°36' W 121°54'0 0.0
2017-Oct-18 00:55N 36°36' W 121°54'0 0.0
2017-Oct-18 00:19N 36°36' W 121°54'0 0.0
2017-Oct-17 23:58N 36°36' W 121°54'0 0.0
2017-Oct-17 23:28N 36°36' W 121°54'0 0.0
2017-Oct-17 23:01N 36°36' W 121°54'0 0.3
2017-Oct-17 22:31N 36°36' W 121°53'0 0.7
2017-Oct-17 22:01N 36°37' W 121°54'0 0.0
2017-Oct-17 21:31N 36°37' W 121°54'3313.9
2017-Oct-17 19:06N 37°02' W 122°21'218.2
2017-Oct-17 19:00N 37°03' W 122°23'917.6
2017-Oct-17 18:30N 37°11' W 122°27'815.8
2017-Oct-17 18:00N 37°19' W 122°30'714.6
2017-Oct-17 17:30N 37°26' W 122°32'713.3
2017-Oct-17 17:00N 37°32' W 122°33'612.5
2017-Oct-17 16:30N 37°39' W 122°33'713.8
2017-Oct-17 15:58N 37°46' W 122°32'511.1
2017-Oct-17 15:31N 37°49' W 122°27'510.3
2017-Oct-17 15:00N 37°45' W 122°22'713.0
2017-Oct-17 14:30N 37°39' W 122°19'612.0
2017-Oct-17 14:00N 37°35' W 122°14'  
Track history (hours):
 
Tides and Currents Weather Stations Pressure Air Temp Water Temp Dewpoint Dewpoint Depression Visibility Wind Speed Wind Dir Waves Ship Positions

Sierra Fox

Owner: Sierra Fox LLC, Woodside, CA. More information available from US FCC via Universal Licensing System and Coast Guard Vessel Documentation Center.

Last reported at 2017-Oct-19 23:32 UTC. Time now 2017-Nov-18 01:21 UTC.
Position N 34°14' W 119°16'.
Warning: this ship's position is 29 days out of date.

Length 18 m; draft 2 m.

Type: Pleasure craft. MMSI: 367394290.

Date/timePositionNaut miles runAvg speedWind from/ knotsBaromVisibWave heightAir tempDewpointWater temp
2017-Oct-19 23:32N 34°14' W 119°16'0 0.0
2017-Oct-19 23:29N 34°14' W 119°16'0 0.5
2017-Oct-19 23:00N 34°15' W 119°16'611.6
2017-Oct-19 22:31N 34°16' W 119°23'816.4
2017-Oct-19 22:00N 34°18' W 119°32'816.3
2017-Oct-19 21:30N 34°21' W 119°41'714.8
2017-Oct-19 21:00N 34°23' W 119°50'714.1
2017-Oct-19 20:30N 34°24' W 119°58'714.1
2017-Oct-19 19:59N 34°24' W 120°07'713.4
2017-Oct-19 19:29N 34°24' W 120°15'714.2
2017-Oct-19 19:01N 34°25' W 120°24'713.5
2017-Oct-19 18:30N 34°28' W 120°31'714.7
2017-Oct-19 18:00N 34°32' W 120°38'714.4
2017-Oct-19 17:30N 34°39' W 120°42'715.0
2017-Oct-19 17:00N 34°46' W 120°44'714.5
2017-Oct-19 16:31N 34°53' W 120°47'714.4
2017-Oct-19 16:01N 34°59' W 120°50'714.6
2017-Oct-19 15:30N 35°06' W 120°54'715.0
2017-Oct-19 15:01N 35°14' W 120°55'714.0
2017-Oct-19 14:29N 35°21' W 120°53'2 4.3
2017-Oct-19 14:00N 35°22' W 120°51'0 0.0
2017-Oct-19 13:28N 35°22' W 120°51'0 0.0
2017-Oct-19 12:58N 35°22' W 120°51'0 0.0
2017-Oct-19 12:28N 35°22' W 120°51'0 0.0
2017-Oct-19 11:58N 35°22' W 120°51'0 0.0
2017-Oct-19 11:28N 35°22' W 120°51'0 0.0
2017-Oct-19 10:58N 35°22' W 120°51'0 0.0
2017-Oct-19 10:28N 35°22' W 120°51'0 0.0
2017-Oct-19 09:58N 35°22' W 120°51'0 0.0
2017-Oct-19 09:28N 35°22' W 120°51'0 0.0
2017-Oct-19 08:58N 35°22' W 120°51'0 0.0
2017-Oct-19 08:28N 35°22' W 120°51'0 0.0
2017-Oct-19 07:58N 35°22' W 120°51'0 0.0
2017-Oct-19 07:28N 35°22' W 120°51'0 0.0
2017-Oct-19 06:58N 35°22' W 120°51'0 0.0
2017-Oct-19 06:28N 35°22' W 120°51'0 0.0
2017-Oct-19 05:58N 35°22' W 120°51'0 0.0
2017-Oct-19 05:28N 35°22' W 120°51'0 0.0
2017-Oct-19 04:58N 35°22' W 120°51'90 6.0
2017-Oct-18 14:00N 36°37' W 121°53'1 1.3
2017-Oct-18 13:30N 36°36' W 121°54'0 0.0
2017-Oct-18 12:58N 36°36' W 121°54'0 0.0
2017-Oct-18 12:28N 36°36' W 121°54'0 0.0
2017-Oct-18 11:58N 36°36' W 121°54'0 0.0
2017-Oct-18 11:28N 36°36' W 121°54'0 0.0
2017-Oct-18 10:58N 36°36' W 121°54'0 0.0
2017-Oct-18 10:28N 36°36' W 121°54'0 0.0
2017-Oct-18 09:55N 36°36' W 121°54'0 0.0
2017-Oct-18 09:22N 36°36' W 121°54'0 0.0
2017-Oct-18 08:58N 36°36' W 121°54'0 0.0
2017-Oct-18 08:28N 36°36' W 121°54'0 0.0
2017-Oct-18 07:58N 36°36' W 121°54'0 0.0
2017-Oct-18 07:28N 36°36' W 121°54'0 0.0
2017-Oct-18 06:55N 36°36' W 121°54'0 0.0
2017-Oct-18 06:25N 36°36' W 121°54'0 0.0
2017-Oct-18 05:55N 36°36' W 121°54'0 0.0
2017-Oct-18 05:28N 36°36' W 121°54'0 0.0
2017-Oct-18 04:58N 36°36' W 121°54'0 0.0
2017-Oct-18 04:25N 36°36' W 121°54'0 0.0
2017-Oct-18 03:55N 36°36' W 121°54'0 0.0
2017-Oct-18 03:25N 36°36' W 121°54'0 0.0
2017-Oct-18 02:58N 36°36' W 121°54'0 0.0
2017-Oct-18 02:25N 36°36' W 121°54'0 0.0
2017-Oct-18 01:55N 36°36' W 121°54'0 0.0
2017-Oct-18 01:25N 36°36' W 121°54'0 0.0
2017-Oct-18 00:55N 36°36' W 121°54'0 0.0
2017-Oct-18 00:19N 36°36' W 121°54'0 0.0
2017-Oct-17 23:58N 36°36' W 121°54'0 0.0
2017-Oct-17 23:28N 36°36' W 121°54'0 0.0
2017-Oct-17 23:01N 36°36' W 121°54'0 0.3
2017-Oct-17 22:31N 36°36' W 121°53'0 0.7
2017-Oct-17 22:01N 36°37' W 121°54'0 0.0
2017-Oct-17 21:31N 36°37' W 121°54'3313.9
2017-Oct-17 19:06N 37°02' W 122°21'218.2
2017-Oct-17 19:00N 37°03' W 122°23'917.6
2017-Oct-17 18:30N 37°11' W 122°27'815.8
2017-Oct-17 18:00N 37°19' W 122°30'714.6
2017-Oct-17 17:30N 37°26' W 122°32'713.3
2017-Oct-17 17:00N 37°32' W 122°33'612.5
2017-Oct-17 16:30N 37°39' W 122°33'713.8
2017-Oct-17 15:58N 37°46' W 122°32'511.1
2017-Oct-17 15:31N 37°49' W 122°27'510.3
2017-Oct-17 15:00N 37°45' W 122°22'713.0
2017-Oct-17 14:30N 37°39' W 122°19'612.0
2017-Oct-17 14:00N 37°35' W 122°14'  

Dump ship's entire track history